Time,TemperatureF,DewpointF,PressureIn,WindDirection,WindDirectionDegrees,WindSpeedMPH,WindSpeedGustMPH,Humidity,HourlyPrecipIn,Conditions,Clouds,dailyrainin,SoftwareType,DateUTC
2013-02-19 00:07:00,51.4,30.2,29.82,South,180,6.3,-999.0,44,-99.99,,,0.00,Acu-Link.com,2013-02-19 05:07:00,
2013-02-19 00:22:00,51.1,30.0,29.83,SSE,157,1.7,-999.0,44,-99.99,,,0.00,Acu-Link.com,2013-02-19 05:22:00,
2013-02-19 00:37:00,50.4,32.5,29.82,South,180,5.3,-999.0,50,-99.99,,,0.00,Acu-Link.com,2013-02-19 05:37:00,
2013-02-19 00:53:00,48.6,33.6,29.84,SE,135,7.8,-999.0,56,-99.99,,,0.00,Acu-Link.com,2013-02-19 05:53:00,
2013-02-19 01:08:00,46.4,36.0,29.81,SSE,157,4.2,-999.0,67,-99.99,,,0.02,Acu-Link.com,2013-02-19 06:08:00,
2013-02-19 01:23:00,44.8,38.0,29.82,South,180,1.7,-999.0,77,-99.99,,,0.04,Acu-Link.com,2013-02-19 06:23:00,
2013-02-19 01:39:00,43.7,38.9,29.84,South,180,2.2,-999.0,83,-99.99,,,0.08,Acu-Link.com,2013-02-19 06:39:00,
2013-02-19 01:54:00,43.0,38.8,29.85,SSE,157,1.7,-999.0,85,-99.99,,,0.17,Acu-Link.com,2013-02-19 06:54:00,
2013-02-19 02:09:00,42.1,38.8,29.85,SW,225,5.3,-999.0,88,-99.99,,,0.24,Acu-Link.com,2013-02-19 07:09:00,
2013-02-19 02:25:00,41.5,38.5,29.85,East,90,0.0,-999.0,89,-99.99,,,0.30,Acu-Link.com,2013-02-19 07:25:00,
2013-02-19 02:40:00,41.4,39.0,29.84,South,180,0.0,-999.0,91,-99.99,,,0.42,Acu-Link.com,2013-02-19 07:40:00,
2013-02-19 02:55:00,41.2,38.8,29.84,SE,135,3.2,-999.0,91,-99.99,,,0.48,Acu-Link.com,2013-02-19 07:55:00,
2013-02-19 03:10:00,41.0,38.9,29.85,West,270,3.2,-999.0,92,-99.99,,,0.55,Acu-Link.com,2013-02-19 08:10:00,
2013-02-19 03:26:00,41.0,39.1,29.86,SW,225,1.7,-999.0,93,-99.99,,,0.58,Acu-Link.com,2013-02-19 08:26:00,
2013-02-19 03:41:00,41.0,39.1,29.85,SSE,157,2.2,-999.0,93,-99.99,,,0.60,Acu-Link.com,2013-02-19 08:41:00,
2013-02-19 03:56:00,41.0,39.1,29.84,SSW,202,3.2,-999.0,93,-99.99,,,0.60,Acu-Link.com,2013-02-19 08:56:00,
2013-02-19 04:17:00,41.0,38.9,29.83,West,270,2.7,-999.0,92,-99.99,,,0.60,Acu-Link.com,2013-02-19 09:17:00,
2013-02-19 04:32:00,40.8,38.1,29.82,ESE,112,2.7,-999.0,90,-99.99,,,0.60,Acu-Link.com,2013-02-19 09:32:00,
2013-02-19 04:47:00,40.8,37.8,29.80,SSE,157,2.7,-999.0,89,-99.99,,,0.61,Acu-Link.com,2013-02-19 09:47:00,
2013-02-19 05:03:00,41.0,38.0,29.80,ESE,112,2.7,-999.0,89,-99.99,,,0.61,Acu-Link.com,2013-02-19 10:03:00,
2013-02-19 05:18:00,40.8,37.8,29.78,SE,135,5.8,-999.0,89,-99.99,,,0.61,Acu-Link.com,2013-02-19 10:18:00,
2013-02-19 05:33:00,40.6,37.9,29.79,SSW,202,3.2,-999.0,90,-99.99,,,0.62,Acu-Link.com,2013-02-19 10:33:00,
2013-02-19 05:48:00,40.8,38.1,29.78,SSW,202,2.2,-999.0,90,-99.99,,,0.62,Acu-Link.com,2013-02-19 10:48:00,
2013-02-19 06:04:00,40.8,38.4,29.79,South,180,4.2,-999.0,91,-99.99,,,0.62,Acu-Link.com,2013-02-19 11:04:00,
2013-02-19 06:19:00,40.8,38.4,29.78,SSW,202,2.2,-999.0,91,-99.99,,,0.62,Acu-Link.com,2013-02-19 11:19:00,
2013-02-19 06:34:00,40.8,38.7,29.79,South,180,0.0,-999.0,92,-99.99,,,0.62,Acu-Link.com,2013-02-19 11:34:00,
2013-02-19 06:49:00,40.8,38.9,29.81,SW,225,2.7,-999.0,93,-99.99,,,0.65,Acu-Link.com,2013-02-19 11:49:00,
2013-02-19 07:04:00,40.8,39.2,29.81,SSW,202,0.0,-999.0,94,-99.99,,,0.68,Acu-Link.com,2013-02-19 12:04:00,
2013-02-19 07:20:00,40.8,40.3,29.81,SSW,202,1.7,-999.0,98,-99.99,,,0.71,Acu-Link.com,2013-02-19 12:20:00,
2013-02-19 07:35:00,40.8,40.3,29.81,South,180,2.7,-999.0,98,-99.99,,,0.72,Acu-Link.com,2013-02-19 12:35:00,
2013-02-19 07:50:00,40.8,40.3,29.82,South,180,0.0,-999.0,98,-99.99,,,0.72,Acu-Link.com,2013-02-19 12:50:00,
2013-02-19 08:05:00,41.0,40.5,29.83,WSW,247,1.7,-999.0,98,-99.99,,,0.74,Acu-Link.com,2013-02-19 13:05:00,
2013-02-19 08:20:00,41.2,40.7,29.84,SW,225,1.1,-999.0,98,-99.99,,,0.74,Acu-Link.com,2013-02-19 13:20:00,
2013-02-19 08:36:00,41.2,40.7,29.84,West,270,4.2,-999.0,98,-99.99,,,0.75,Acu-Link.com,2013-02-19 13:36:00,
2013-02-19 08:51:00,41.4,40.9,29.85,SSW,202,0.0,-999.0,98,-99.99,,,0.76,Acu-Link.com,2013-02-19 13:51:00,
2013-02-19 09:06:00,41.9,41.4,29.85,SSW,202,3.2,-999.0,98,-99.99,,,0.77,Acu-Link.com,2013-02-19 14:06:00,
2013-02-19 09:21:00,42.1,41.6,29.86,SE,135,2.7,-999.0,98,-99.99,,,0.77,Acu-Link.com,2013-02-19 14:21:00,
2013-02-19 09:37:00,42.6,42.1,29.86,SSW,202,3.7,-999.0,98,-99.99,,,0.78,Acu-Link.com,2013-02-19 14:37:00,
2013-02-19 09:52:00,43.0,42.5,29.86,SSW,202,2.2,-999.0,98,-99.99,,,0.78,Acu-Link.com,2013-02-19 14:52:00,
2013-02-19 10:07:00,44.4,43.9,29.86,West,270,2.7,-999.0,98,-99.99,,,0.78,Acu-Link.com,2013-02-19 15:07:00,
2013-02-19 10:22:00,45.9,43.7,29.86,WSW,247,1.7,-999.0,92,-99.99,,,0.78,Acu-Link.com,2013-02-19 15:22:00,
2013-02-19 10:37:00,46.2,44.0,29.86,SSE,157,2.7,-999.0,92,-99.99,,,0.78,Acu-Link.com,2013-02-19 15:37:00,
2013-02-19 10:53:00,46.9,44.7,29.86,SSE,157,3.2,-999.0,92,-99.99,,,0.78,Acu-Link.com,2013-02-19 15:53:00,
2013-02-19 11:08:00,47.5,45.0,29.87,SW,225,2.2,-999.0,91,-99.99,,,0.78,Acu-Link.com,2013-02-19 16:08:00,
2013-02-19 11:23:00,51.4,42.7,29.87,WNW,292,3.2,-999.0,72,-99.99,,,0.78,Acu-Link.com,2013-02-19 16:23:00,
2013-02-19 11:38:00,52.2,42.0,29.87,NNW,337,4.7,-999.0,68,-99.99,,,0.78,Acu-Link.com,2013-02-19 16:38:00,
2013-02-19 11:53:00,53.4,40.3,29.87,West,270,3.7,-999.0,61,-99.99,,,0.78,Acu-Link.com,2013-02-19 16:53:00,
2013-02-19 12:09:00,53.6,38.3,29.87,SW,225,6.3,-999.0,56,-99.99,,,0.78,Acu-Link.com,2013-02-19 17:09:00,
2013-02-19 12:24:00,54.5,36.7,29.87,SSW,202,6.8,-999.0,51,-99.99,,,0.78,Acu-Link.com,2013-02-19 17:24:00,
2013-02-19 12:39:00,54.3,36.1,29.87,NNW,337,3.7,-999.0,50,-99.99,,,0.78,Acu-Link.com,2013-02-19 17:39:00,
2013-02-19 12:54:00,55.4,36.0,29.86,NE,45,4.7,-999.0,48,-99.99,,,0.78,Acu-Link.com,2013-02-19 17:54:00,
2013-02-19 13:10:00,54.7,32.6,29.86,WNW,292,6.3,-999.0,43,-99.99,,,0.78,Acu-Link.com,2013-02-19 18:10:00,
2013-02-19 13:25:00,54.3,26.5,29.85,NW,315,3.2,-999.0,34,-99.99,,,0.78,Acu-Link.com,2013-02-19 18:25:00,
2013-02-19 13:40:00,55.2,26.6,29.84,South,180,3.7,-999.0,33,-99.99,,,0.78,Acu-Link.com,2013-02-19 18:40:00,
2013-02-19 13:55:00,55.9,26.5,29.84,NNW,337,4.2,-999.0,32,-99.99,,,0.78,Acu-Link.com,2013-02-19 18:55:00,
2013-02-19 14:11:00,55.9,28.7,29.84,NNE,22,2.2,-999.0,35,-99.99,,,0.78,Acu-Link.com,2013-02-19 19:11:00,
2013-02-19 14:26:00,55.4,23.7,29.85,SW,225,4.7,-999.0,29,-99.99,,,0.78,Acu-Link.com,2013-02-19 19:26:00,
2013-02-19 14:41:00,55.8,24.8,29.85,SW,225,2.2,-999.0,30,-99.99,,,0.78,Acu-Link.com,2013-02-19 19:41:00,
2013-02-19 14:56:00,54.9,19.8,29.86,South,180,3.7,-999.0,25,-99.99,,,0.78,Acu-Link.com,2013-02-19 19:56:00,
2013-02-19 15:11:00,54.7,19.6,29.85,WNW,292,2.7,-999.0,25,-99.99,,,0.78,Acu-Link.com,2013-02-19 20:11:00,
2013-02-19 15:27:00,55.2,19.1,29.85,SW,225,9.9,-999.0,24,-99.99,,,0.78,Acu-Link.com,2013-02-19 20:27:00,
2013-02-19 15:42:00,55.0,16.9,29.86,West,270,3.7,-999.0,22,-99.99,,,0.78,Acu-Link.com,2013-02-19 20:42:00,
2013-02-19 15:57:00,55.0,14.7,29.87,NW,315,6.8,-999.0,20,-99.99,,,0.78,Acu-Link.com,2013-02-19 20:57:00,
2013-02-19 16:12:00,54.1,17.1,29.88,North,0,6.8,-999.0,23,-99.99,,,0.78,Acu-Link.com,2013-02-19 21:12:00,
2013-02-19 16:27:00,54.3,19.2,29.88,SSW,202,5.8,-999.0,25,-99.99,,,0.78,Acu-Link.com,2013-02-19 21:27:00,
2013-02-19 16:43:00,53.8,15.9,29.88,North,0,4.7,-999.0,22,-99.99,,,0.78,Acu-Link.com,2013-02-19 21:43:00,
2013-02-19 16:58:00,52.2,14.5,29.89,West,270,5.3,-999.0,22,-99.99,,,0.78,Acu-Link.com,2013-02-19 21:58:00,
2013-02-19 17:13:00,53.2,15.4,29.89,WNW,292,7.3,-999.0,22,-99.99,,,0.78,Acu-Link.com,2013-02-19 22:13:00,
2013-02-19 17:28:00,50.5,12.0,29.90,NE,45,2.7,-999.0,21,-99.99,,,0.78,Acu-Link.com,2013-02-19 22:28:00,
2013-02-19 17:44:00,49.5,10.1,29.91,SSW,202,3.2,-999.0,20,-99.99,,,0.78,Acu-Link.com,2013-02-19 22:44:00,
2013-02-19 17:59:00,48.6,8.2,29.92,WNW,292,3.7,-999.0,19,-99.99,,,0.78,Acu-Link.com,2013-02-19 22:59:00,
2013-02-19 18:14:00,47.3,10.4,29.92,WSW,247,2.2,-999.0,22,-99.99,,,0.78,Acu-Link.com,2013-02-19 23:14:00,
2013-02-19 18:29:00,46.6,12.7,29.92,WNW,292,4.7,-999.0,25,-99.99,,,0.78,Acu-Link.com,2013-02-19 23:29:00,
2013-02-19 18:44:00,45.1,14.8,29.93,North,0,2.2,-999.0,29,-99.99,,,0.78,Acu-Link.com,2013-02-19 23:44:00,
2013-02-19 18:59:00,44.8,14.5,29.94,WNW,292,4.2,-999.0,29,-99.99,,,0.78,Acu-Link.com,2013-02-19 23:59:00,
2013-02-19 19:15:00,44.8,12.9,29.95,WNW,292,3.7,-999.0,27,-99.99,,,0.78,Acu-Link.com,2013-02-20 00:15:00,
2013-02-19 19:30:00,44.1,13.1,29.96,NW,315,2.7,-999.0,28,-99.99,,,0.78,Acu-Link.com,2013-02-20 00:30:00,
2013-02-19 19:45:00,43.0,13.7,29.96,NW,315,0.0,-999.0,30,-99.99,,,0.78,Acu-Link.com,2013-02-20 00:45:00,
2013-02-19 20:00:00,41.7,15.4,29.97,NNW,337,1.7,-999.0,34,-99.99,,,0.78,Acu-Link.com,2013-02-20 01:00:00,
2013-02-19 20:16:00,40.5,15.7,29.97,North,0,1.7,-999.0,36,-99.99,,,0.78,Acu-Link.com,2013-02-20 01:16:00,
2013-02-19 20:31:00,39.4,15.3,29.97,SW,225,0.0,-999.0,37,-99.99,,,0.78,Acu-Link.com,2013-02-20 01:31:00,
2013-02-19 20:46:00,38.8,17.1,29.97,WNW,292,2.7,-999.0,41,-99.99,,,0.78,Acu-Link.com,2013-02-20 01:46:00,
2013-02-19 21:02:00,38.5,17.4,29.97,NW,315,1.7,-999.0,42,-99.99,,,0.78,Acu-Link.com,2013-02-20 02:02:00,
2013-02-19 21:17:00,37.8,17.3,29.97,WNW,292,0.0,-999.0,43,-99.99,,,0.78,Acu-Link.com,2013-02-20 02:17:00,
2013-02-19 21:32:00,36.7,18.4,29.99,NW,315,0.0,-999.0,47,-99.99,,,0.78,Acu-Link.com,2013-02-20 02:32:00,
2013-02-19 21:47:00,36.0,19.6,29.99,NW,315,1.7,-999.0,51,-99.99,,,0.78,Acu-Link.com,2013-02-20 02:47:00,
2013-02-19 22:02:00,37.2,18.4,29.99,NNW,337,3.2,-999.0,46,-99.99,,,0.78,Acu-Link.com,2013-02-20 03:02:00,
2013-02-19 22:17:00,38.7,18.2,30.01,NW,315,2.7,-999.0,43,-99.99,,,0.78,Acu-Link.com,2013-02-20 03:17:00,
2013-02-19 22:33:00,37.8,18.4,30.02,NNW,337,0.0,-999.0,45,-99.99,,,0.78,Acu-Link.com,2013-02-20 03:33:00,
2013-02-19 22:48:00,37.2,17.8,30.03,NW,315,1.7,-999.0,45,-99.99,,,0.78,Acu-Link.com,2013-02-20 03:48:00,
2013-02-19 23:03:00,37.2,18.4,30.04,SW,225,2.7,-999.0,46,-99.99,,,0.78,Acu-Link.com,2013-02-20 04:03:00,
2013-02-19 23:19:00,37.8,17.9,30.04,NW,315,4.2,-999.0,44,-99.99,,,0.78,Acu-Link.com,2013-02-20 04:19:00,
2013-02-19 23:34:00,37.2,17.8,30.05,NW,315,2.7,-999.0,45,-99.99,,,0.78,Acu-Link.com,2013-02-20 04:34:00,
2013-02-19 23:49:00,36.3,17.5,30.04,NW,315,1.7,-999.0,46,-99.99,,,0.78,Acu-Link.com,2013-02-20 04:49:00,